createdAt,value
2023-02-04T00:00:20.620Z,101300.88
2023-02-04T00:02:47.737Z,101299.22
2023-02-04T00:05:17.129Z,101304.25
2023-02-04T00:07:43.968Z,101305.94
2023-02-04T00:10:11.152Z,101304.25
2023-02-04T00:12:38.000Z,101305.09
2023-02-04T00:15:06.035Z,101307.66
2023-02-04T00:17:32.934Z,101311.00
2023-02-04T00:19:59.717Z,101302.53
2023-02-04T00:22:28.806Z,101312.66
2023-02-04T00:24:55.771Z,101306.69
2023-02-04T00:27:23.197Z,101308.38
2023-02-04T00:29:50.003Z,101310.00
2023-02-04T00:32:16.860Z,101307.47
2023-02-04T00:34:43.582Z,101312.50
2023-02-04T00:37:10.371Z,101304.03
2023-02-04T00:39:37.238Z,101303.13
2023-02-04T00:42:05.658Z,101292.91
2023-02-04T00:44:32.717Z,101300.50
2023-02-04T00:46:59.686Z,101310.63
2023-02-04T00:49:26.494Z,101302.13
2023-02-04T00:51:53.208Z,101300.38
2023-02-04T00:54:20.166Z,101293.63
2023-02-04T00:56:46.960Z,101299.53
2023-02-04T00:59:13.737Z,101295.28
2023-02-04T01:01:40.502Z,101303.78
2023-02-04T01:04:07.458Z,101307.00
2023-02-04T01:06:34.784Z,101308.69
2023-02-04T01:09:01.724Z,101316.31
2023-02-04T01:11:30.927Z,101323.13
2023-02-04T01:13:58.202Z,101318.00
2023-02-04T01:16:25.091Z,101323.06
2023-02-04T01:18:51.863Z,101328.19
2023-02-04T01:21:18.549Z,101326.50
2023-02-04T01:23:45.291Z,101332.44
2023-02-04T01:26:12.001Z,101335.84
2023-02-04T01:28:38.728Z,101343.41
2023-02-04T01:31:05.668Z,101347.69
2023-02-04T01:33:32.631Z,101356.09
2023-02-04T01:35:59.440Z,101352.72
2023-02-04T01:38:26.222Z,101350.19
2023-02-04T01:40:53.622Z,101357.78
2023-02-04T01:43:22.436Z,101357.78
2023-02-04T01:45:50.659Z,101369.59
2023-02-04T01:48:21.741Z,101372.97
2023-02-04T01:50:57.116Z,101377.19
2023-02-04T01:53:26.492Z,101372.06
2023-02-04T01:55:53.529Z,101371.22
2023-02-04T01:58:20.408Z,101372.84
2023-02-04T02:00:47.217Z,101372.84
2023-02-04T02:03:14.102Z,101373.69
2023-02-04T02:05:49.057Z,101369.44
2023-02-04T02:08:17.236Z,101371.16
2023-02-04T02:10:47.610Z,101368.63
2023-02-04T02:13:18.896Z,101366.03
2023-02-04T02:15:47.224Z,101367.72
2023-02-04T02:18:14.756Z,101365.19
2023-02-04T02:20:45.090Z,101364.38
2023-02-04T02:24:00.885Z,101364.38
2023-02-04T02:26:28.019Z,101358.31
2023-02-04T02:28:55.414Z,101364.31
2023-02-04T02:31:23.705Z,101371.06
2023-02-04T02:33:50.745Z,101375.31
2023-02-04T02:36:17.826Z,101373.63
2023-02-04T02:38:44.721Z,101378.66
2023-02-04T02:41:11.561Z,101379.56
2023-02-04T02:43:39.376Z,101385.47
2023-02-04T02:46:06.798Z,101387.19
2023-02-04T02:48:33.732Z,101377.91
2023-02-04T02:51:00.563Z,101381.34
2023-02-04T02:53:27.380Z,101375.47
2023-02-04T02:55:54.178Z,101383.09
2023-02-04T02:58:33.755Z,101386.50
2023-02-04T03:01:06.040Z,101394.09
2023-02-04T03:03:37.925Z,101400.84
2023-02-04T03:06:15.206Z,101398.25
2023-02-04T03:08:44.212Z,101412.59
2023-02-04T03:11:11.120Z,101396.53
2023-02-04T03:13:38.601Z,101410.94
2023-02-04T03:16:08.049Z,101406.75
2023-02-04T03:18:36.483Z,101404.22
2023-02-04T03:21:05.724Z,101407.66
2023-02-04T03:23:36.764Z,101416.09
2023-02-04T03:26:05.244Z,101421.16
2023-02-04T03:28:32.890Z,101422.03
2023-02-04T03:31:00.415Z,101422.88
2023-02-04T03:33:31.800Z,101419.50
2023-02-04T03:35:59.271Z,101416.97
2023-02-04T03:38:26.980Z,101422.88
2023-02-04T03:40:53.731Z,101426.22
2023-02-04T03:43:20.513Z,101435.56
2023-02-04T03:45:47.325Z,101440.63
2023-02-04T03:48:14.152Z,101432.13
2023-02-04T03:50:40.914Z,101438.84
2023-02-04T03:53:07.933Z,101443.09
2023-02-04T03:55:35.879Z,101441.44
2023-02-04T03:58:04.163Z,101438.03
2023-02-04T04:00:32.363Z,101440.56
2023-02-04T04:03:00.245Z,101432.94
2023-02-04T04:05:28.491Z,101442.19
2023-02-04T04:07:55.293Z,101440.50
2023-02-04T04:10:22.000Z,101441.22
2023-02-04T04:12:48.744Z,101444.66
2023-02-04T04:15:15.582Z,101441.31
2023-02-04T04:17:42.334Z,101439.59
2023-02-04T04:20:10.024Z,101440.41
2023-02-04T04:22:36.731Z,101437.03
2023-02-04T04:25:03.788Z,101441.28
2023-02-04T04:27:30.603Z,101431.09
2023-02-04T04:29:57.431Z,101427.66
2023-02-04T04:32:24.469Z,101436.09
2023-02-04T04:34:51.258Z,101444.50
2023-02-04T04:37:18.079Z,101440.31
2023-02-04T04:39:44.822Z,101455.53
2023-02-04T04:42:11.561Z,101452.06
2023-02-04T04:44:38.357Z,101449.50
2023-02-04T04:47:05.058Z,101459.63
2023-02-04T04:49:32.066Z,101460.50
2023-02-04T04:51:58.766Z,101460.50
2023-02-04T04:54:25.639Z,101467.22
2023-02-04T04:56:52.323Z,101468.91
2023-02-04T04:59:19.066Z,101462.97
2023-02-04T05:01:45.819Z,101470.56
2023-02-04T05:04:12.568Z,101471.44
2023-02-04T05:06:39.373Z,101470.56
2023-02-04T05:09:06.191Z,101468.03
2023-02-04T05:11:32.969Z,101462.94
2023-02-04T05:13:59.743Z,101460.41
2023-02-04T05:16:26.630Z,101462.94
2023-02-04T05:18:53.781Z,101458.78
2023-02-04T05:21:20.539Z,101467.22
2023-02-04T05:23:47.255Z,101469.78
2023-02-04T05:26:22.178Z,101469.78
2023-02-04T05:28:56.184Z,101468.09
2023-02-04T05:31:23.113Z,101474.06
2023-02-04T05:33:49.930Z,101470.66
2023-02-04T05:36:17.738Z,101466.47
2023-02-04T05:38:44.524Z,101482.56
2023-02-04T05:41:11.511Z,101484.22
2023-02-04T05:43:38.894Z,101474.09
2023-02-04T05:46:05.902Z,101485.13
2023-02-04T05:48:32.842Z,101494.38
2023-02-04T05:50:59.544Z,101492.69
2023-02-04T05:53:26.397Z,101500.38
2023-02-04T05:55:53.125Z,101501.22
2023-02-04T05:58:19.874Z,101508.81
2023-02-04T06:00:46.617Z,101509.72
2023-02-04T06:03:14.487Z,101516.78
2023-02-04T06:05:41.391Z,101513.59
2023-02-04T06:08:08.159Z,101512.63
2023-02-04T06:10:34.955Z,101519.31
2023-02-04T06:13:01.752Z,101519.31
2023-02-04T06:15:28.482Z,101520.91
2023-02-04T06:17:55.264Z,101521.75
2023-02-04T06:20:22.052Z,101521.75
2023-02-04T06:22:51.666Z,101526.03
2023-02-04T06:25:18.891Z,101528.50
2023-02-04T06:27:46.992Z,101525.13
2023-02-04T06:30:14.747Z,101527.66
2023-02-04T06:32:41.594Z,101528.50
2023-02-04T06:35:09.603Z,101530.25
2023-02-04T06:37:36.396Z,101539.56
2023-02-04T06:40:03.145Z,101542.09
2023-02-04T06:42:29.833Z,101544.63
2023-02-04T06:44:56.552Z,101546.28
2023-02-04T06:47:23.376Z,101550.53
2023-02-04T06:49:50.088Z,101558.13
2023-02-04T06:52:16.810Z,101555.59
2023-02-04T06:54:43.547Z,101558.97
2023-02-04T06:57:11.113Z,101565.78
2023-02-04T06:59:40.311Z,101563.25
2023-02-04T07:02:08.341Z,101563.28
2023-02-04T07:04:35.408Z,101563.28
2023-02-04T07:07:02.520Z,101565.88
2023-02-04T07:09:29.605Z,101559.09
2023-02-04T07:11:56.309Z,101553.22
2023-02-04T07:14:23.050Z,101556.53
2023-02-04T07:16:49.785Z,101558.22
2023-02-04T07:19:16.590Z,101557.41
2023-02-04T07:21:43.340Z,101567.50
2023-02-04T07:24:10.065Z,101558.19
2023-02-04T07:26:36.745Z,101556.44
2023-02-04T07:29:03.479Z,101559.81
2023-02-04T07:31:30.260Z,101558.13
2023-02-04T07:33:57.019Z,101562.34
2023-02-04T07:36:23.974Z,101570.00
2023-02-04T07:38:50.772Z,101575.09
2023-02-04T07:41:17.615Z,101579.34
2023-02-04T07:43:44.557Z,101578.56
2023-02-04T07:46:11.305Z,101581.97
2023-02-04T07:48:38.030Z,101577.81
2023-02-04T07:51:04.913Z,101588.03
2023-02-04T07:53:31.658Z,101590.59
2023-02-04T07:55:58.376Z,101594.09
2023-02-04T07:58:25.171Z,101595.91
2023-02-04T08:00:51.908Z,101599.41
2023-02-04T08:03:18.741Z,101605.47
2023-02-04T08:05:45.439Z,101608.94
2023-02-04T08:08:12.324Z,101611.66
2023-02-04T08:10:39.095Z,101615.19
2023-02-04T08:13:05.806Z,101622.94
2023-02-04T08:15:32.837Z,101626.50
2023-02-04T08:17:59.656Z,101635.94
2023-02-04T08:20:26.455Z,101635.19
2023-02-04T08:22:53.222Z,101630.31
2023-02-04T08:25:19.975Z,101625.38
2023-02-04T08:27:46.776Z,101627.19
2023-02-04T08:30:13.892Z,101629.00
2023-02-04T08:32:40.739Z,101629.13
2023-02-04T08:35:08.811Z,101635.13
2023-02-04T08:37:35.552Z,101640.31
2023-02-04T08:40:02.263Z,101638.75
2023-02-04T08:42:29.304Z,101638.84
2023-02-04T08:44:56.017Z,101644.84
2023-02-04T08:47:23.030Z,101650.91
2023-02-04T08:49:49.733Z,101652.72
2023-02-04T08:52:16.463Z,101650.34
2023-02-04T08:54:43.184Z,101650.47
2023-02-04T08:57:09.878Z,101648.13
2023-02-04T08:59:36.688Z,101654.22
2023-02-04T09:02:03.923Z,101655.25
2023-02-04T09:04:30.698Z,101657.94
2023-02-04T09:06:57.407Z,101663.19
2023-02-04T09:09:26.152Z,101661.63
2023-02-04T09:11:53.118Z,101671.09
2023-02-04T09:14:19.841Z,101671.28
2023-02-04T09:16:46.764Z,101673.09
2023-02-04T09:19:16.296Z,101671.59
2023-02-04T09:21:43.003Z,101672.56
2023-02-04T09:24:09.728Z,101675.22
2023-02-04T09:26:36.651Z,101682.22
2023-02-04T09:29:03.352Z,101678.13
2023-02-04T09:31:30.172Z,101691.06
2023-02-04T09:33:57.028Z,101683.69
2023-02-04T09:36:28.351Z,101686.56
2023-02-04T09:38:55.236Z,101686.06
2023-02-04T09:41:22.317Z,101689.97
2023-02-04T09:43:50.104Z,101683.75
2023-02-04T09:46:25.374Z,101681.91
2023-02-04T09:48:52.577Z,101686.94
2023-02-04T09:51:27.494Z,101686.00
2023-02-04T09:54:19.817Z,101678.97
2023-02-04T09:56:48.016Z,101689.63
2023-02-04T09:59:19.936Z,101691.63
2023-02-04T10:01:56.299Z,101698.66
2023-02-04T10:04:24.134Z,101697.03
2023-02-04T10:06:50.977Z,101691.94
2023-02-04T10:09:18.509Z,101692.84
2023-02-04T10:11:48.556Z,101694.53
2023-02-04T10:14:22.625Z,101694.56
2023-02-04T10:17:01.540Z,101687.72
2023-02-04T10:19:31.132Z,101690.28
2023-02-04T10:21:58.487Z,101692.06
2023-02-04T10:24:28.147Z,101686.97
2023-02-04T10:27:06.000Z,101685.28
2023-02-04T10:29:32.761Z,101687.91
2023-02-04T10:31:59.476Z,101687.09
2023-02-04T10:34:39.865Z,101684.56
2023-02-04T10:37:22.654Z,101689.72
2023-02-04T10:39:49.746Z,101681.19
2023-02-04T10:42:33.132Z,101678.66
2023-02-04T10:45:00.010Z,101677.81
2023-02-04T10:47:31.349Z,101678.72
2023-02-04T10:50:14.866Z,101682.97
2023-02-04T10:53:34.808Z,101675.25
2023-02-04T10:56:02.567Z,101671.81
2023-02-04T10:58:31.938Z,101663.13
2023-02-04T11:00:59.230Z,101675.81
2023-02-04T11:03:30.787Z,101675.56
2023-02-04T11:06:01.184Z,101671.69
2023-02-04T11:08:35.358Z,101668.50
2023-02-04T11:11:16.685Z,101667.09
2023-02-04T11:13:49.487Z,101659.63
2023-02-04T11:16:19.053Z,99484.69
2023-02-04T11:18:54.955Z,101658.88
2023-02-04T11:21:31.934Z,101671.03
2023-02-04T11:24:13.793Z,101668.53
2023-02-04T11:26:47.412Z,101676.25
2023-02-04T11:29:26.210Z,101671.69
2023-02-04T11:31:52.934Z,101672.22
2023-02-04T11:34:19.597Z,101671.81
2023-02-04T11:37:15.104Z,101666.78
2023-02-04T11:39:50.477Z,101672.41
2023-02-04T11:42:32.392Z,101666.38
2023-02-04T11:45:22.976Z,101670.34
2023-02-04T11:47:51.818Z,101670.97
2023-02-04T11:50:33.364Z,101667.47
2023-02-04T11:53:02.099Z,101664.63
2023-02-04T11:55:36.005Z,101658.47
2023-02-04T11:58:03.612Z,101659.09
2023-02-04T12:00:33.280Z,101665.06
2023-02-04T12:03:11.900Z,101657.25
2023-02-04T12:05:42.673Z,101664.63
2023-02-04T12:08:23.546Z,101659.59
2023-02-04T12:11:25.821Z,101663.44
2023-02-04T12:13:56.451Z,101661.56
2023-02-04T12:16:24.551Z,101657.72
2023-02-04T12:18:52.066Z,101663.25
2023-02-04T12:21:19.365Z,101657.41
2023-02-04T12:23:46.174Z,101667.03
2023-02-04T12:26:13.275Z,101672.25
2023-02-04T12:28:40.022Z,101672.22
2023-02-04T12:31:06.937Z,101672.03
2023-02-04T12:33:33.776Z,101680.34
2023-02-04T12:36:00.557Z,101677.28
2023-02-04T12:38:28.187Z,101674.19
2023-02-04T12:40:54.943Z,101672.81
2023-02-04T12:43:21.726Z,101680.03
2023-02-04T12:45:49.791Z,101687.19
2023-02-04T12:48:16.833Z,101684.00
2023-02-04T12:50:43.756Z,101693.66
2023-02-04T12:53:10.548Z,101691.28
2023-02-04T12:55:37.383Z,101682.88
2023-02-04T12:58:04.917Z,101691.53
2023-02-04T13:00:31.738Z,101695.09
2023-02-04T13:03:01.335Z,101685.75
2023-02-04T13:05:28.519Z,101700.38
2023-02-04T13:07:55.334Z,101690.97
2023-02-04T13:10:23.925Z,101685.88
2023-02-04T13:12:51.555Z,101685.91
2023-02-04T13:15:18.500Z,101685.06
2023-02-04T13:17:45.315Z,101680.78
2023-02-04T13:20:12.808Z,101675.69
2023-02-04T13:22:39.651Z,101678.25
2023-02-04T13:25:07.153Z,101684.31
2023-02-04T13:27:34.002Z,101677.47
2023-02-04T13:30:00.754Z,101674.97
2023-02-04T13:32:27.573Z,101681.00
2023-02-04T13:34:54.297Z,101679.34
2023-02-04T13:37:21.032Z,101668.28
2023-02-04T13:39:47.838Z,101663.19
2023-02-04T13:42:14.599Z,101670.09
2023-02-04T13:44:41.313Z,101667.53
2023-02-04T13:47:08.024Z,101666.69
2023-02-04T13:49:34.881Z,101664.16
2023-02-04T13:52:01.610Z,101664.19
2023-02-04T13:54:28.489Z,101666.75
2023-02-04T13:56:55.258Z,101665.03
2023-02-04T13:59:21.983Z,101660.72
2023-02-04T14:01:48.797Z,101658.13
2023-02-04T14:04:15.597Z,101657.25
2023-02-04T14:06:44.965Z,101656.38
2023-02-04T14:09:12.487Z,101662.31
2023-02-04T14:11:40.210Z,101667.41
2023-02-04T14:14:07.595Z,101665.69
2023-02-04T14:16:36.338Z,101664.78
2023-02-04T14:19:05.232Z,101661.34
2023-02-04T14:21:32.229Z,101657.91
2023-02-04T14:23:59.167Z,101663.84
2023-02-04T14:26:25.886Z,101664.69
2023-02-04T14:28:52.674Z,101673.22
2023-02-04T14:31:19.723Z,101668.06
2023-02-04T14:33:48.072Z,101673.19
2023-02-04T14:36:16.722Z,101667.19
2023-02-04T14:38:43.437Z,101679.97
2023-02-04T14:41:11.379Z,101668.91
2023-02-04T14:43:38.058Z,101675.72
2023-02-04T14:46:05.686Z,101669.75
2023-02-04T14:48:32.639Z,101671.44
2023-02-04T14:50:59.428Z,101677.41
2023-02-04T14:53:26.216Z,101673.97
2023-02-04T14:55:53.137Z,101684.19
2023-02-04T14:58:19.894Z,101682.47
2023-02-04T15:00:47.036Z,101683.31
2023-02-04T15:03:13.758Z,101685.88
2023-02-04T15:05:40.624Z,101690.94
2023-02-04T15:08:07.405Z,101683.25
2023-02-04T15:10:34.381Z,101689.19
2023-02-04T15:13:01.377Z,101696.81
2023-02-04T15:15:28.162Z,101695.09
2023-02-04T15:17:54.942Z,101694.22
2023-02-04T15:20:21.680Z,101704.44
2023-02-04T15:22:51.784Z,101705.25
2023-02-04T15:25:19.231Z,101707.75
2023-02-04T15:27:46.026Z,101704.31
2023-02-04T15:30:15.246Z,101711.09
2023-02-04T15:32:42.976Z,101711.00
2023-02-04T15:35:09.894Z,101712.69
2023-02-04T15:37:36.712Z,101711.78
2023-02-04T15:40:04.589Z,101708.34
2023-02-04T15:42:31.425Z,101714.25
2023-02-04T15:44:58.114Z,101715.00
2023-02-04T15:47:24.814Z,101709.81
2023-02-04T15:49:51.536Z,101718.28
2023-02-04T15:52:24.618Z,101717.31
2023-02-04T15:54:52.386Z,101714.72
2023-02-04T15:57:19.118Z,101710.38
2023-02-04T15:59:45.854Z,101710.31
2023-02-04T16:02:12.649Z,101707.69
2023-02-04T16:04:40.443Z,101717.81
2023-02-04T16:07:08.293Z,101708.34
2023-02-04T16:09:35.834Z,101705.72
2023-02-04T16:12:02.946Z,101718.34
2023-02-04T16:14:29.801Z,101713.97
2023-02-04T16:16:56.521Z,101712.97
2023-02-04T16:19:23.371Z,101718.75
2023-02-04T16:21:50.096Z,101718.63
2023-02-04T16:24:18.423Z,101723.59
2023-02-04T16:26:46.051Z,101729.38
2023-02-04T16:29:12.843Z,101724.97
2023-02-04T16:31:39.607Z,101720.56
2023-02-04T16:34:06.377Z,101718.75
2023-02-04T16:36:33.368Z,101719.50
2023-02-04T16:39:00.235Z,101719.31
2023-02-04T16:41:27.054Z,101723.41
2023-02-04T16:43:53.779Z,101725.88
2023-02-04T16:46:20.725Z,101724.06
2023-02-04T16:48:47.419Z,101723.97
2023-02-04T16:51:14.149Z,101730.72
2023-02-04T16:53:40.940Z,101736.56
2023-02-04T16:56:07.978Z,101737.25
2023-02-04T16:58:34.709Z,101743.06
2023-02-04T17:01:01.494Z,101748.91
2023-02-04T17:03:28.458Z,101752.97
2023-02-04T17:05:55.223Z,101746.84
2023-02-04T17:08:22.237Z,101757.75
2023-02-04T17:11:08.353Z,101755.91
2023-02-04T17:13:35.143Z,101755.72
2023-02-04T17:16:02.291Z,101769.13
2023-02-04T17:18:31.712Z,101770.69
2023-02-04T17:20:59.462Z,101765.53
2023-02-04T17:23:26.940Z,101761.97
2023-02-04T17:25:54.021Z,101763.53
2023-02-04T17:28:20.891Z,101764.28
2023-02-04T17:30:47.738Z,101768.44
2023-02-04T17:33:14.500Z,101768.31
2023-02-04T17:35:41.231Z,101775.03
2023-02-04T17:38:08.026Z,101773.22
2023-02-04T17:40:34.830Z,101777.34
2023-02-04T17:43:01.593Z,101773.91
2023-02-04T17:45:28.538Z,101772.13
2023-02-04T17:47:55.313Z,101779.72
2023-02-04T17:50:22.030Z,101774.50
2023-02-04T17:52:48.790Z,101763.38
2023-02-04T17:55:30.647Z,101767.47
2023-02-04T17:58:02.096Z,101781.84
2023-02-04T18:00:31.539Z,101783.44
2023-02-04T18:02:58.829Z,101781.63
2023-02-04T18:05:28.590Z,101791.72
2023-02-04T18:08:19.650Z,101796.69
2023-02-04T18:10:57.061Z,101790.59
2023-02-04T18:13:34.037Z,101793.03
2023-02-04T18:16:19.140Z,101797.19
2023-02-04T18:18:45.878Z,101793.69
2023-02-04T18:21:21.001Z,101789.38
2023-02-04T18:23:53.609Z,101795.19
2023-02-04T18:26:25.712Z,101795.13
2023-02-04T18:28:52.867Z,101788.25
2023-02-04T18:31:25.414Z,101795.03
2023-02-04T18:33:52.377Z,101794.06
2023-02-04T18:36:20.626Z,101789.81
2023-02-04T18:38:47.424Z,101794.84
2023-02-04T18:41:22.879Z,101787.97
2023-02-04T18:44:02.199Z,101794.63
2023-02-04T18:46:45.939Z,101790.22
2023-02-04T18:49:33.269Z,101790.03
2023-02-04T18:52:14.999Z,101800.88
2023-02-04T18:54:53.465Z,101791.41
2023-02-04T18:57:34.536Z,101789.56
2023-02-04T19:00:10.448Z,101789.31
2023-02-04T19:02:49.381Z,101788.34
2023-02-04T19:05:42.383Z,101780.59
2023-02-04T19:08:25.848Z,101779.59
2023-02-04T19:10:58.835Z,101778.66
2023-02-04T19:13:42.173Z,101781.13
2023-02-04T19:16:26.510Z,101776.69
2023-02-04T19:18:54.793Z,101770.69
2023-02-04T19:21:27.469Z,101776.50
2023-02-04T19:24:21.032Z,101780.56
2023-02-04T19:27:01.759Z,101785.44
2023-02-04T19:29:42.440Z,101781.91
2023-02-04T19:32:27.837Z,101780.00
2023-02-04T19:35:00.660Z,101782.34
2023-02-04T19:37:39.797Z,101781.34
2023-02-04T19:40:29.164Z,101785.31
2023-02-04T19:43:08.335Z,101786.81
2023-02-04T19:45:35.338Z,101790.78
2023-02-04T19:48:14.582Z,101789.78
2023-02-04T19:50:41.354Z,101796.41
2023-02-04T19:53:27.063Z,101794.53
2023-02-04T19:55:54.635Z,101796.13
2023-02-04T19:58:36.697Z,101786.72
2023-02-04T20:01:18.342Z,101790.88
2023-02-04T20:03:47.713Z,101791.59
2023-02-04T20:06:43.590Z,101787.22
2023-02-04T20:09:29.103Z,101789.59
2023-02-04T20:12:17.955Z,101781.75
2023-02-04T20:14:56.587Z,101786.63
2023-02-04T20:17:43.562Z,101795.69
2023-02-04T20:20:21.073Z,101798.00
2023-02-04T20:22:59.729Z,101791.84
2023-02-04T20:25:48.003Z,101792.47
2023-02-04T20:28:24.101Z,101803.38
2023-02-04T20:30:52.117Z,101801.66
2023-02-04T20:33:48.962Z,101805.09
2023-02-04T20:36:25.039Z,101800.03
2023-02-04T20:39:28.669Z,101792.28
2023-02-04T20:42:17.458Z,101793.78
2023-02-04T20:44:44.227Z,101792.81
2023-02-04T20:47:25.208Z,101790.22
2023-02-04T20:49:58.918Z,101783.44
2023-02-04T20:52:40.794Z,101783.41
2023-02-04T20:55:26.572Z,101784.19
2023-02-04T20:58:11.827Z,101769.81
2023-02-04T21:00:40.324Z,101779.19
2023-02-04T21:03:27.504Z,101779.13
2023-02-04T21:05:59.902Z,101775.72
2023-02-04T21:08:43.844Z,101771.44
2023-02-04T21:11:11.202Z,101773.09
2023-02-04T21:13:38.719Z,101775.72
2023-02-04T21:16:06.505Z,101773.22
2023-02-04T21:18:36.163Z,101778.44
2023-02-04T21:21:07.238Z,101783.63
2023-02-04T21:23:36.701Z,101784.56
2023-02-04T21:26:05.036Z,101780.44
2023-02-04T21:28:32.894Z,101787.28
2023-02-04T21:31:01.006Z,101789.09
2023-02-04T21:33:27.961Z,101790.84
2023-02-04T21:35:54.721Z,101790.88
2023-02-04T21:38:21.518Z,101790.88
2023-02-04T21:40:48.502Z,101790.84
2023-02-04T21:43:15.389Z,101784.09
2023-02-04T21:45:42.286Z,101782.34
2023-02-04T21:48:09.081Z,101784.22
2023-02-04T21:50:38.402Z,101781.72
2023-02-04T21:53:07.437Z,101774.94
2023-02-04T21:55:35.235Z,101772.41
2023-02-04T21:58:02.803Z,101772.47
2023-02-04T22:00:29.987Z,101780.84
2023-02-04T22:02:56.868Z,101785.13
2023-02-04T22:05:24.757Z,101785.91
2023-02-04T22:07:52.206Z,101786.00
2023-02-04T22:10:25.649Z,101780.19
2023-02-04T22:12:52.991Z,101776.81
2023-02-04T22:15:21.497Z,101773.56
2023-02-04T22:17:49.537Z,101769.44
2023-02-04T22:20:17.552Z,101756.78
2023-02-04T22:22:45.944Z,101762.78
2023-02-04T22:25:15.946Z,101755.22
2023-02-04T22:27:43.172Z,101750.25
2023-02-04T22:30:12.884Z,101756.28
2023-02-04T22:32:40.392Z,101747.00
2023-02-04T22:35:10.265Z,101739.53
2023-02-04T22:37:41.754Z,101745.50
2023-02-04T22:40:11.254Z,101739.66
2023-02-04T22:42:38.395Z,101742.25
2023-02-04T22:45:05.777Z,101739.84
2023-02-04T22:47:32.587Z,101747.53
2023-02-04T22:49:59.377Z,101742.53
2023-02-04T22:52:26.188Z,101746.03
2023-02-04T22:54:53.349Z,101748.69
2023-02-04T22:57:20.151Z,101751.28
2023-02-04T22:59:47.023Z,101754.72
2023-02-04T23:02:13.939Z,101764.09
2023-02-04T23:04:43.674Z,101759.16
2023-02-04T23:07:12.726Z,101753.38
2023-02-04T23:09:39.871Z,101751.72
2023-02-04T23:12:13.143Z,101762.88
2023-02-04T23:14:46.142Z,101768.06
2023-02-04T23:17:15.413Z,101762.31
2023-02-04T23:19:42.697Z,101772.56
2023-02-04T23:22:12.804Z,101773.53
2023-02-04T23:24:40.987Z,101772.81
2023-02-04T23:27:10.772Z,101776.31
2023-02-04T23:29:39.387Z,101773.03
2023-02-04T23:32:06.569Z,101778.28
2023-02-04T23:34:34.211Z,101774.06
2023-02-04T23:37:01.216Z,101780.09
2023-02-04T23:39:28.104Z,101788.59
2023-02-04T23:41:54.953Z,101786.16
2023-02-04T23:44:21.735Z,101778.56
2023-02-04T23:46:48.598Z,101786.16
2023-02-04T23:49:15.650Z,101787.91
2023-02-04T23:51:42.951Z,101793.00
2023-02-04T23:54:10.194Z,101787.94
2023-02-04T23:56:36.929Z,101796.44
2023-02-04T23:59:04.301Z,101786.38
